sensor_id;sensor_type;location;lat;lon;timestamp;P1;durP1;ratioP1;P2;durP2;ratioP2
15712;SDS011;7957;51.608;6.916;2023-04-24T00:01:34;2.27;;;1.70;;
15712;SDS011;7957;51.608;6.916;2023-04-24T00:04:01;1.57;;;1.43;;
15712;SDS011;7957;51.608;6.916;2023-04-24T00:06:29;2.57;;;1.70;;
15712;SDS011;7957;51.608;6.916;2023-04-24T00:08:58;1.77;;;1.30;;
15712;SDS011;7957;51.608;6.916;2023-04-24T00:11:27;3.13;;;1.30;;
15712;SDS011;7957;51.608;6.916;2023-04-24T00:13:55;1.93;;;1.60;;
15712;SDS011;7957;51.608;6.916;2023-04-24T00:16:22;1.97;;;1.60;;
15712;SDS011;7957;51.608;6.916;2023-04-24T00:18:49;3.33;;;1.40;;
15712;SDS011;7957;51.608;6.916;2023-04-24T00:21:17;2.03;;;1.80;;
15712;SDS011;7957;51.608;6.916;2023-04-24T00:23:45;1.83;;;1.63;;
15712;SDS011;7957;51.608;6.916;2023-04-24T00:26:12;2.37;;;1.80;;
15712;SDS011;7957;51.608;6.916;2023-04-24T00:28:41;2.03;;;1.50;;
15712;SDS011;7957;51.608;6.916;2023-04-24T00:31:08;2.47;;;1.80;;
15712;SDS011;7957;51.608;6.916;2023-04-24T00:33:35;2.87;;;1.63;;
15712;SDS011;7957;51.608;6.916;2023-04-24T00:36:03;4.07;;;1.97;;
15712;SDS011;7957;51.608;6.916;2023-04-24T00:38:44;1.77;;;1.67;;
15712;SDS011;7957;51.608;6.916;2023-04-24T00:41:11;3.13;;;1.87;;
15712;SDS011;7957;51.608;6.916;2023-04-24T00:43:38;3.03;;;1.70;;
15712;SDS011;7957;51.608;6.916;2023-04-24T00:46:07;1.90;;;1.73;;
15712;SDS011;7957;51.608;6.916;2023-04-24T00:48:36;3.07;;;1.60;;
15712;SDS011;7957;51.608;6.916;2023-04-24T00:51:05;1.90;;;1.60;;
15712;SDS011;7957;51.608;6.916;2023-04-24T00:53:32;2.27;;;1.87;;
15712;SDS011;7957;51.608;6.916;2023-04-24T00:55:59;2.53;;;2.10;;
15712;SDS011;7957;51.608;6.916;2023-04-24T00:58:26;1.93;;;1.83;;
15712;SDS011;7957;51.608;6.916;2023-04-24T01:00:55;2.30;;;1.90;;
15712;SDS011;7957;51.608;6.916;2023-04-24T01:03:26;3.93;;;2.33;;
15712;SDS011;7957;51.608;6.916;2023-04-24T01:05:56;3.80;;;2.83;;
15712;SDS011;7957;51.608;6.916;2023-04-24T01:08:24;3.77;;;2.30;;
15712;SDS011;7957;51.608;6.916;2023-04-24T01:10:52;3.27;;;2.57;;
15712;SDS011;7957;51.608;6.916;2023-04-24T01:13:20;3.37;;;2.63;;
15712;SDS011;7957;51.608;6.916;2023-04-24T01:15:47;3.20;;;2.90;;
15712;SDS011;7957;51.608;6.916;2023-04-24T01:18:15;3.67;;;2.70;;
15712;SDS011;7957;51.608;6.916;2023-04-24T01:20:44;3.27;;;2.70;;
15712;SDS011;7957;51.608;6.916;2023-04-24T01:23:13;3.20;;;2.90;;
15712;SDS011;7957;51.608;6.916;2023-04-24T01:25:41;3.30;;;3.00;;
15712;SDS011;7957;51.608;6.916;2023-04-24T01:28:08;3.43;;;3.07;;
15712;SDS011;7957;51.608;6.916;2023-04-24T01:30:36;4.53;;;3.30;;
15712;SDS011;7957;51.608;6.916;2023-04-24T01:33:03;4.63;;;2.90;;
15712;SDS011;7957;51.608;6.916;2023-04-24T01:35:30;3.77;;;3.27;;
15712;SDS011;7957;51.608;6.916;2023-04-24T01:37:58;3.43;;;3.13;;
15712;SDS011;7957;51.608;6.916;2023-04-24T01:40:26;4.50;;;3.40;;
15712;SDS011;7957;51.608;6.916;2023-04-24T01:42:54;5.90;;;3.80;;
15712;SDS011;7957;51.608;6.916;2023-04-24T01:45:21;4.03;;;3.60;;
15712;SDS011;7957;51.608;6.916;2023-04-24T01:47:48;4.50;;;3.80;;
15712;SDS011;7957;51.608;6.916;2023-04-24T01:50:16;6.23;;;4.20;;
15712;SDS011;7957;51.608;6.916;2023-04-24T01:52:43;5.00;;;3.83;;
15712;SDS011;7957;51.608;6.916;2023-04-24T01:55:10;5.03;;;4.40;;
15712;SDS011;7957;51.608;6.916;2023-04-24T01:57:39;5.50;;;4.70;;
15712;SDS011;7957;51.608;6.916;2023-04-24T02:00:07;4.57;;;4.17;;
15712;SDS011;7957;51.608;6.916;2023-04-24T02:02:36;5.40;;;4.80;;
15712;SDS011;7957;51.608;6.916;2023-04-24T02:05:05;5.97;;;4.80;;
15712;SDS011;7957;51.608;6.916;2023-04-24T02:07:33;6.40;;;4.97;;
15712;SDS011;7957;51.608;6.916;2023-04-24T02:10:00;5.70;;;5.10;;
15712;SDS011;7957;51.608;6.916;2023-04-24T02:12:27;5.77;;;4.93;;
15712;SDS011;7957;51.608;6.916;2023-04-24T02:14:55;6.53;;;5.60;;
15712;SDS011;7957;51.608;6.916;2023-04-24T02:17:22;6.43;;;5.50;;
15712;SDS011;7957;51.608;6.916;2023-04-24T02:19:49;8.93;;;5.60;;
15712;SDS011;7957;51.608;6.916;2023-04-24T02:22:17;5.90;;;5.30;;
15712;SDS011;7957;51.608;6.916;2023-04-24T02:24:44;6.00;;;5.40;;
15712;SDS011;7957;51.608;6.916;2023-04-24T02:27:11;5.77;;;5.30;;
15712;SDS011;7957;51.608;6.916;2023-04-24T02:29:38;6.13;;;5.37;;
15712;SDS011;7957;51.608;6.916;2023-04-24T02:32:07;7.67;;;5.93;;
15712;SDS011;7957;51.608;6.916;2023-04-24T02:34:36;6.70;;;5.90;;
15712;SDS011;7957;51.608;6.916;2023-04-24T02:37:04;7.90;;;6.53;;
15712;SDS011;7957;51.608;6.916;2023-04-24T02:39:31;6.33;;;5.73;;
15712;SDS011;7957;51.608;6.916;2023-04-24T02:41:58;7.53;;;6.50;;
15712;SDS011;7957;51.608;6.916;2023-04-24T02:44:25;6.37;;;5.77;;
15712;SDS011;7957;51.608;6.916;2023-04-24T02:46:52;7.10;;;6.40;;
15712;SDS011;7957;51.608;6.916;2023-04-24T02:49:20;10.00;;;7.20;;
15712;SDS011;7957;51.608;6.916;2023-04-24T02:51:47;7.77;;;7.07;;
15712;SDS011;7957;51.608;6.916;2023-04-24T02:54:14;9.20;;;7.73;;
15712;SDS011;7957;51.608;6.916;2023-04-24T02:56:41;11.40;;;8.13;;
15712;SDS011;7957;51.608;6.916;2023-04-24T02:59:08;9.47;;;8.50;;
15712;SDS011;7957;51.608;6.916;2023-04-24T03:01:35;8.93;;;8.13;;
15712;SDS011;7957;51.608;6.916;2023-04-24T03:04:02;9.77;;;8.77;;
15712;SDS011;7957;51.608;6.916;2023-04-24T03:06:31;9.20;;;8.33;;
15712;SDS011;7957;51.608;6.916;2023-04-24T03:09:00;10.10;;;9.10;;
15712;SDS011;7957;51.608;6.916;2023-04-24T03:11:28;11.07;;;8.87;;
15712;SDS011;7957;51.608;6.916;2023-04-24T03:13:55;9.83;;;8.93;;
15712;SDS011;7957;51.608;6.916;2023-04-24T03:16:22;11.03;;;9.33;;
15712;SDS011;7957;51.608;6.916;2023-04-24T03:18:49;10.27;;;9.20;;
15712;SDS011;7957;51.608;6.916;2023-04-24T03:21:17;12.87;;;9.57;;
15712;SDS011;7957;51.608;6.916;2023-04-24T03:23:45;11.23;;;9.63;;
15712;SDS011;7957;51.608;6.916;2023-04-24T03:26:12;10.30;;;9.30;;
15712;SDS011;7957;51.608;6.916;2023-04-24T03:28:39;10.53;;;9.47;;
15712;SDS011;7957;51.608;6.916;2023-04-24T03:31:07;11.97;;;9.83;;
15712;SDS011;7957;51.608;6.916;2023-04-24T03:33:34;13.07;;;10.47;;
15712;SDS011;7957;51.608;6.916;2023-04-24T03:36:01;10.93;;;9.93;;
15712;SDS011;7957;51.608;6.916;2023-04-24T03:38:29;12.60;;;11.30;;
15712;SDS011;7957;51.608;6.916;2023-04-24T03:40:57;13.23;;;10.70;;
15712;SDS011;7957;51.608;6.916;2023-04-24T03:43:24;12.37;;;11.17;;
15712;SDS011;7957;51.608;6.916;2023-04-24T03:45:52;14.63;;;11.30;;
15712;SDS011;7957;51.608;6.916;2023-04-24T03:48:19;11.73;;;10.63;;
15712;SDS011;7957;51.608;6.916;2023-04-24T03:50:46;14.43;;;11.53;;
15712;SDS011;7957;51.608;6.916;2023-04-24T03:53:13;12.70;;;11.30;;
15712;SDS011;7957;51.608;6.916;2023-04-24T03:55:40;13.07;;;11.37;;
15712;SDS011;7957;51.608;6.916;2023-04-24T03:58:09;12.87;;;11.47;;
15712;SDS011;7957;51.608;6.916;2023-04-24T04:00:39;13.13;;;11.73;;
15712;SDS011;7957;51.608;6.916;2023-04-24T04:03:07;12.83;;;11.10;;
15712;SDS011;7957;51.608;6.916;2023-04-24T04:05:34;13.50;;;11.67;;
15712;SDS011;7957;51.608;6.916;2023-04-24T04:08:01;13.77;;;12.27;;
15712;SDS011;7957;51.608;6.916;2023-04-24T04:10:28;15.60;;;12.17;;
15712;SDS011;7957;51.608;6.916;2023-04-24T04:12:55;13.83;;;11.67;;
15712;SDS011;7957;51.608;6.916;2023-04-24T04:15:23;13.57;;;12.17;;
15712;SDS011;7957;51.608;6.916;2023-04-24T04:17:50;12.93;;;11.13;;
15712;SDS011;7957;51.608;6.916;2023-04-24T04:20:17;13.47;;;11.50;;
15712;SDS011;7957;51.608;6.916;2023-04-24T04:22:44;15.33;;;12.20;;
15712;SDS011;7957;51.608;6.916;2023-04-24T04:25:11;14.13;;;12.17;;
15712;SDS011;7957;51.608;6.916;2023-04-24T04:27:39;13.70;;;12.10;;
15712;SDS011;7957;51.608;6.916;2023-04-24T04:30:07;13.67;;;12.27;;
15712;SDS011;7957;51.608;6.916;2023-04-24T04:32:36;14.30;;;12.27;;
15712;SDS011;7957;51.608;6.916;2023-04-24T04:35:03;13.10;;;11.73;;
15712;SDS011;7957;51.608;6.916;2023-04-24T04:37:31;12.63;;;11.23;;
15712;SDS011;7957;51.608;6.916;2023-04-24T04:39:59;12.97;;;11.57;;
15712;SDS011;7957;51.608;6.916;2023-04-24T04:42:26;12.73;;;11.43;;
15712;SDS011;7957;51.608;6.916;2023-04-24T04:44:54;13.37;;;11.80;;
15712;SDS011;7957;51.608;6.916;2023-04-24T04:47:27;14.17;;;11.27;;
15712;SDS011;7957;51.608;6.916;2023-04-24T04:49:58;14.17;;;11.43;;
15712;SDS011;7957;51.608;6.916;2023-04-24T04:52:25;13.17;;;11.60;;
15712;SDS011;7957;51.608;6.916;2023-04-24T04:54:52;13.17;;;11.43;;
15712;SDS011;7957;51.608;6.916;2023-04-24T04:57:19;13.73;;;11.63;;
15712;SDS011;7957;51.608;6.916;2023-04-24T04:59:46;13.43;;;11.20;;
15712;SDS011;7957;51.608;6.916;2023-04-24T05:02:16;13.67;;;12.20;;
15712;SDS011;7957;51.608;6.916;2023-04-24T05:04:43;15.10;;;11.47;;
15712;SDS011;7957;51.608;6.916;2023-04-24T05:07:12;12.37;;;11.07;;
15712;SDS011;7957;51.608;6.916;2023-04-24T05:09:45;12.57;;;11.27;;
15712;SDS011;7957;51.608;6.916;2023-04-24T05:12:12;12.37;;;10.93;;
15712;SDS011;7957;51.608;6.916;2023-04-24T05:14:39;11.93;;;10.57;;
15712;SDS011;7957;51.608;6.916;2023-04-24T05:17:06;12.33;;;11.00;;
15712;SDS011;7957;51.608;6.916;2023-04-24T05:19:34;15.03;;;11.07;;
15712;SDS011;7957;51.608;6.916;2023-04-24T05:22:02;13.20;;;10.53;;
15712;SDS011;7957;51.608;6.916;2023-04-24T05:24:33;12.67;;;10.43;;
15712;SDS011;7957;51.608;6.916;2023-04-24T05:27:00;11.23;;;10.13;;
15712;SDS011;7957;51.608;6.916;2023-04-24T05:29:29;11.50;;;10.30;;
15712;SDS011;7957;51.608;6.916;2023-04-24T05:31:58;12.27;;;10.50;;
15712;SDS011;7957;51.608;6.916;2023-04-24T05:34:25;10.67;;;9.67;;
15712;SDS011;7957;51.608;6.916;2023-04-24T05:36:52;11.20;;;9.60;;
15712;SDS011;7957;51.608;6.916;2023-04-24T05:39:21;13.20;;;9.73;;
15712;SDS011;7957;51.608;6.916;2023-04-24T05:41:51;11.87;;;9.90;;
15712;SDS011;7957;51.608;6.916;2023-04-24T05:44:18;10.50;;;8.87;;
15712;SDS011;7957;51.608;6.916;2023-04-24T05:46:45;10.20;;;9.03;;
15712;SDS011;7957;51.608;6.916;2023-04-24T05:49:12;10.23;;;9.10;;
15712;SDS011;7957;51.608;6.916;2023-04-24T05:51:39;10.57;;;9.07;;
15712;SDS011;7957;51.608;6.916;2023-04-24T05:54:06;10.10;;;9.10;;
15712;SDS011;7957;51.608;6.916;2023-04-24T05:56:33;10.03;;;9.00;;
15712;SDS011;7957;51.608;6.916;2023-04-24T05:59:02;10.17;;;9.17;;
15712;SDS011;7957;51.608;6.916;2023-04-24T06:01:29;9.83;;;8.50;;
15712;SDS011;7957;51.608;6.916;2023-04-24T06:03:56;9.67;;;8.67;;
15712;SDS011;7957;51.608;6.916;2023-04-24T06:06:23;9.67;;;8.67;;
15712;SDS011;7957;51.608;6.916;2023-04-24T06:08:50;9.47;;;8.57;;
15712;SDS011;7957;51.608;6.916;2023-04-24T06:11:18;9.33;;;8.43;;
15712;SDS011;7957;51.608;6.916;2023-04-24T06:13:45;10.17;;;8.47;;
15712;SDS011;7957;51.608;6.916;2023-04-24T06:16:14;10.23;;;8.87;;
15712;SDS011;7957;51.608;6.916;2023-04-24T06:18:41;9.30;;;8.43;;
15712;SDS011;7957;51.608;6.916;2023-04-24T06:21:08;9.13;;;8.27;;
15712;SDS011;7957;51.608;6.916;2023-04-24T06:23:35;9.97;;;9.03;;
15712;SDS011;7957;51.608;6.916;2023-04-24T06:26:11;9.67;;;8.77;;
15712;SDS011;7957;51.608;6.916;2023-04-24T06:28:38;9.20;;;8.30;;
15712;SDS011;7957;51.608;6.916;2023-04-24T06:31:05;11.20;;;8.73;;
15712;SDS011;7957;51.608;6.916;2023-04-24T06:33:34;12.17;;;9.00;;
15712;SDS011;7957;51.608;6.916;2023-04-24T06:36:01;9.50;;;8.13;;
15712;SDS011;7957;51.608;6.916;2023-04-24T06:38:29;9.87;;;8.57;;
15712;SDS011;7957;51.608;6.916;2023-04-24T06:40:56;9.20;;;8.30;;
15712;SDS011;7957;51.608;6.916;2023-04-24T06:43:23;9.77;;;8.43;;
15712;SDS011;7957;51.608;6.916;2023-04-24T06:45:50;9.23;;;8.40;;
15712;SDS011;7957;51.608;6.916;2023-04-24T06:51:08;8.87;;;7.97;;
15712;SDS011;7957;51.608;6.916;2023-04-24T06:53:36;8.90;;;8.10;;
15712;SDS011;7957;51.608;6.916;2023-04-24T06:56:05;9.27;;;8.37;;
15712;SDS011;7957;51.608;6.916;2023-04-24T06:58:34;9.37;;;8.37;;
15712;SDS011;7957;51.608;6.916;2023-04-24T07:01:01;8.83;;;8.03;;
15712;SDS011;7957;51.608;6.916;2023-04-24T07:03:28;9.03;;;8.13;;
15712;SDS011;7957;51.608;6.916;2023-04-24T07:05:57;9.90;;;8.50;;
15712;SDS011;7957;51.608;6.916;2023-04-24T07:08:28;9.07;;;8.17;;
15712;SDS011;7957;51.608;6.916;2023-04-24T07:10:55;8.43;;;7.63;;
15712;SDS011;7957;51.608;6.916;2023-04-24T07:13:23;8.03;;;7.23;;
15712;SDS011;7957;51.608;6.916;2023-04-24T07:15:50;7.70;;;7.00;;
15712;SDS011;7957;51.608;6.916;2023-04-24T07:18:19;7.37;;;6.67;;
15712;SDS011;7957;51.608;6.916;2023-04-24T07:20:46;7.40;;;6.67;;
15712;SDS011;7957;51.608;6.916;2023-04-24T07:23:16;6.90;;;6.30;;
15712;SDS011;7957;51.608;6.916;2023-04-24T07:25:43;7.37;;;6.30;;
15712;SDS011;7957;51.608;6.916;2023-04-24T07:28:10;6.03;;;5.53;;
15712;SDS011;7957;51.608;6.916;2023-04-24T07:30:37;6.73;;;5.97;;
15712;SDS011;7957;51.608;6.916;2023-04-24T07:33:04;6.43;;;5.30;;
15712;SDS011;7957;51.608;6.916;2023-04-24T07:35:32;5.30;;;4.83;;
15712;SDS011;7957;51.608;6.916;2023-04-24T07:37:59;7.73;;;4.93;;
15712;SDS011;7957;51.608;6.916;2023-04-24T07:40:28;4.90;;;4.50;;
15712;SDS011;7957;51.608;6.916;2023-04-24T07:42:55;6.13;;;4.50;;
15712;SDS011;7957;51.608;6.916;2023-04-24T07:45:22;4.73;;;4.23;;
15712;SDS011;7957;51.608;6.916;2023-04-24T07:47:51;4.17;;;3.77;;
15712;SDS011;7957;51.608;6.916;2023-04-24T07:50:18;4.33;;;3.80;;
15712;SDS011;7957;51.608;6.916;2023-04-24T07:52:45;3.80;;;3.50;;
15712;SDS011;7957;51.608;6.916;2023-04-24T07:55:12;3.93;;;3.50;;
15712;SDS011;7957;51.608;6.916;2023-04-24T07:57:41;3.60;;;3.30;;
15712;SDS011;7957;51.608;6.916;2023-04-24T08:00:08;2.97;;;2.60;;
15712;SDS011;7957;51.608;6.916;2023-04-24T08:02:36;2.87;;;2.67;;
15712;SDS011;7957;51.608;6.916;2023-04-24T08:05:03;3.70;;;2.63;;
15712;SDS011;7957;51.608;6.916;2023-04-24T08:07:31;3.00;;;2.70;;
15712;SDS011;7957;51.608;6.916;2023-04-24T08:09:58;2.93;;;2.73;;
15712;SDS011;7957;51.608;6.916;2023-04-24T08:12:25;2.80;;;2.50;;
15712;SDS011;7957;51.608;6.916;2023-04-24T08:14:54;3.93;;;2.80;;
15712;SDS011;7957;51.608;6.916;2023-04-24T08:17:21;3.10;;;2.80;;
15712;SDS011;7957;51.608;6.916;2023-04-24T08:19:48;2.70;;;2.50;;
15712;SDS011;7957;51.608;6.916;2023-04-24T08:22:16;3.10;;;2.80;;
15712;SDS011;7957;51.608;6.916;2023-04-24T08:24:43;2.77;;;2.50;;
15712;SDS011;7957;51.608;6.916;2023-04-24T08:27:10;2.60;;;2.40;;
15712;SDS011;7957;51.608;6.916;2023-04-24T08:29:37;3.40;;;2.30;;
15712;SDS011;7957;51.608;6.916;2023-04-24T08:32:06;2.30;;;2.10;;
15712;SDS011;7957;51.608;6.916;2023-04-24T08:34:33;2.87;;;2.27;;
15712;SDS011;7957;51.608;6.916;2023-04-24T08:37:00;2.20;;;1.97;;
15712;SDS011;7957;51.608;6.916;2023-04-24T08:39:27;2.93;;;2.00;;
15712;SDS011;7957;51.608;6.916;2023-04-24T08:41:57;2.30;;;2.10;;
15712;SDS011;7957;51.608;6.916;2023-04-24T08:44:30;2.20;;;2.00;;
15712;SDS011;7957;51.608;6.916;2023-04-24T08:46:58;2.30;;;1.93;;
15712;SDS011;7957;51.608;6.916;2023-04-24T08:49:28;2.90;;;2.00;;
15712;SDS011;7957;51.608;6.916;2023-04-24T08:51:56;1.93;;;1.60;;
15712;SDS011;7957;51.608;6.916;2023-04-24T08:54:24;1.83;;;1.70;;
15712;SDS011;7957;51.608;6.916;2023-04-24T08:56:52;2.00;;;1.80;;
15712;SDS011;7957;51.608;6.916;2023-04-24T08:59:22;2.13;;;1.70;;
15712;SDS011;7957;51.608;6.916;2023-04-24T09:01:50;2.03;;;1.57;;
15712;SDS011;7957;51.608;6.916;2023-04-24T09:04:18;1.70;;;1.57;;
15712;SDS011;7957;51.608;6.916;2023-04-24T09:06:51;1.90;;;1.70;;
15712;SDS011;7957;51.608;6.916;2023-04-24T09:09:21;2.93;;;1.70;;
15712;SDS011;7957;51.608;6.916;2023-04-24T09:11:49;3.77;;;1.50;;
15712;SDS011;7957;51.608;6.916;2023-04-24T09:14:18;2.40;;;1.67;;
15712;SDS011;7957;51.608;6.916;2023-04-24T09:16:46;1.50;;;1.40;;
15712;SDS011;7957;51.608;6.916;2023-04-24T09:19:13;2.20;;;1.57;;
15712;SDS011;7957;51.608;6.916;2023-04-24T09:21:40;2.03;;;1.50;;
15712;SDS011;7957;51.608;6.916;2023-04-24T09:24:16;1.87;;;1.50;;
15712;SDS011;7957;51.608;6.916;2023-04-24T09:26:45;2.00;;;1.33;;
15712;SDS011;7957;51.608;6.916;2023-04-24T09:29:16;1.40;;;1.30;;
15712;SDS011;7957;51.608;6.916;2023-04-24T09:31:44;2.27;;;1.40;;
15712;SDS011;7957;51.608;6.916;2023-04-24T09:34:12;3.93;;;2.13;;
15712;SDS011;7957;51.608;6.916;2023-04-24T09:36:40;2.83;;;2.30;;
15712;SDS011;7957;51.608;6.916;2023-04-24T09:39:09;4.63;;;3.23;;
15712;SDS011;7957;51.608;6.916;2023-04-24T09:41:45;3.93;;;3.40;;
15712;SDS011;7957;51.608;6.916;2023-04-24T09:44:13;4.20;;;3.63;;
15712;SDS011;7957;51.608;6.916;2023-04-24T09:46:42;4.93;;;4.30;;
15712;SDS011;7957;51.608;6.916;2023-04-24T09:49:14;5.73;;;4.33;;
15712;SDS011;7957;51.608;6.916;2023-04-24T09:51:42;5.67;;;4.57;;
15712;SDS011;7957;51.608;6.916;2023-04-24T09:54:14;5.40;;;4.70;;
15712;SDS011;7957;51.608;6.916;2023-04-24T09:56:42;6.17;;;4.97;;
15712;SDS011;7957;51.608;6.916;2023-04-24T09:59:13;5.00;;;4.50;;
15712;SDS011;7957;51.608;6.916;2023-04-24T10:01:41;6.50;;;4.83;;
15712;SDS011;7957;51.608;6.916;2023-04-24T10:04:17;5.03;;;4.50;;
15712;SDS011;7957;51.608;6.916;2023-04-24T10:06:45;5.20;;;4.70;;
15712;SDS011;7957;51.608;6.916;2023-04-24T10:09:18;5.70;;;5.10;;
15712;SDS011;7957;51.608;6.916;2023-04-24T10:11:56;5.43;;;4.90;;
15712;SDS011;7957;51.608;6.916;2023-04-24T10:14:25;5.50;;;5.00;;
15712;SDS011;7957;51.608;6.916;2023-04-24T10:17:06;6.10;;;5.13;;
15712;SDS011;7957;51.608;6.916;2023-04-24T10:19:37;6.37;;;4.93;;
15712;SDS011;7957;51.608;6.916;2023-04-24T10:22:07;5.20;;;4.63;;
15712;SDS011;7957;51.608;6.916;2023-04-24T10:24:37;5.60;;;5.03;;
15712;SDS011;7957;51.608;6.916;2023-04-24T10:27:14;5.37;;;4.87;;
15712;SDS011;7957;51.608;6.916;2023-04-24T10:29:42;6.20;;;5.47;;
15712;SDS011;7957;51.608;6.916;2023-04-24T10:32:09;6.20;;;5.17;;
15712;SDS011;7957;51.608;6.916;2023-04-24T10:34:36;6.60;;;5.07;;
15712;SDS011;7957;51.608;6.916;2023-04-24T10:37:05;6.67;;;5.27;;
15712;SDS011;7957;51.608;6.916;2023-04-24T10:39:32;7.90;;;5.23;;
15712;SDS011;7957;51.608;6.916;2023-04-24T10:42:00;6.47;;;4.70;;
15712;SDS011;7957;51.608;6.916;2023-04-24T10:44:30;9.70;;;5.00;;
15712;SDS011;7957;51.608;6.916;2023-04-24T10:47:02;9.23;;;5.03;;
15712;SDS011;7957;51.608;6.916;2023-04-24T10:49:30;10.17;;;5.27;;
15712;SDS011;7957;51.608;6.916;2023-04-24T10:52:00;8.07;;;4.70;;
15712;SDS011;7957;51.608;6.916;2023-04-24T10:54:33;8.60;;;4.70;;
15712;SDS011;7957;51.608;6.916;2023-04-24T11:00:12;13.93;;;5.30;;
15712;SDS011;7957;51.608;6.916;2023-04-24T11:02:41;10.00;;;5.50;;
15712;SDS011;7957;51.608;6.916;2023-04-24T11:05:14;16.47;;;6.17;;
15712;SDS011;7957;51.608;6.916;2023-04-24T11:10:38;13.03;;;6.70;;
15712;SDS011;7957;51.608;6.916;2023-04-24T11:13:22;13.67;;;5.97;;
15712;SDS011;7957;51.608;6.916;2023-04-24T11:18:49;13.73;;;6.47;;
15712;SDS011;7957;51.608;6.916;2023-04-24T11:21:19;10.47;;;5.10;;
15712;SDS011;7957;51.608;6.916;2023-04-24T11:23:50;12.43;;;4.93;;
15712;SDS011;7957;51.608;6.916;2023-04-24T11:26:18;12.87;;;4.73;;
15712;SDS011;7957;51.608;6.916;2023-04-24T11:28:49;8.73;;;4.37;;
15712;SDS011;7957;51.608;6.916;2023-04-24T11:34:08;10.03;;;4.83;;
15712;SDS011;7957;51.608;6.916;2023-04-24T11:36:35;8.90;;;4.53;;
15712;SDS011;7957;51.608;6.916;2023-04-24T11:39:03;13.20;;;4.50;;
15712;SDS011;7957;51.608;6.916;2023-04-24T11:41:30;9.70;;;4.47;;
15712;SDS011;7957;51.608;6.916;2023-04-24T11:43:57;10.03;;;4.27;;
15712;SDS011;7957;51.608;6.916;2023-04-24T11:46:27;10.87;;;4.70;;
15712;SDS011;7957;51.608;6.916;2023-04-24T11:48:57;9.63;;;4.40;;
15712;SDS011;7957;51.608;6.916;2023-04-24T11:51:25;8.57;;;4.50;;
15712;SDS011;7957;51.608;6.916;2023-04-24T11:53:53;11.73;;;5.07;;
15712;SDS011;7957;51.608;6.916;2023-04-24T11:56:21;8.27;;;4.23;;
15712;SDS011;7957;51.608;6.916;2023-04-24T11:58:51;9.17;;;4.17;;
15712;SDS011;7957;51.608;6.916;2023-04-24T12:01:19;9.43;;;3.97;;
15712;SDS011;7957;51.608;6.916;2023-04-24T12:03:47;7.50;;;3.83;;
15712;SDS011;7957;51.608;6.916;2023-04-24T12:06:17;10.87;;;4.17;;
15712;SDS011;7957;51.608;6.916;2023-04-24T12:08:45;9.80;;;4.43;;
15712;SDS011;7957;51.608;6.916;2023-04-24T12:11:14;9.47;;;4.43;;
15712;SDS011;7957;51.608;6.916;2023-04-24T12:13:43;9.33;;;4.47;;
15712;SDS011;7957;51.608;6.916;2023-04-24T12:16:10;7.50;;;4.27;;
15712;SDS011;7957;51.608;6.916;2023-04-24T12:18:41;8.33;;;4.00;;
15712;SDS011;7957;51.608;6.916;2023-04-24T12:21:17;8.07;;;3.83;;
15712;SDS011;7957;51.608;6.916;2023-04-24T12:23:45;9.13;;;4.00;;
15712;SDS011;7957;51.608;6.916;2023-04-24T12:26:15;7.77;;;3.57;;
15712;SDS011;7957;51.608;6.916;2023-04-24T12:28:45;8.47;;;3.50;;
15712;SDS011;7957;51.608;6.916;2023-04-24T12:31:14;7.63;;;3.30;;
15712;SDS011;7957;51.608;6.916;2023-04-24T12:33:42;9.80;;;3.53;;
15712;SDS011;7957;51.608;6.916;2023-04-24T12:36:09;5.67;;;3.37;;
15712;SDS011;7957;51.608;6.916;2023-04-24T12:38:42;9.57;;;3.57;;
15712;SDS011;7957;51.608;6.916;2023-04-24T12:41:12;8.00;;;3.30;;
15712;SDS011;7957;51.608;6.916;2023-04-24T12:43:50;7.30;;;3.47;;
15712;SDS011;7957;51.608;6.916;2023-04-24T12:46:18;7.47;;;3.27;;
15712;SDS011;7957;51.608;6.916;2023-04-24T12:48:45;7.33;;;3.27;;
15712;SDS011;7957;51.608;6.916;2023-04-24T12:51:12;7.50;;;3.10;;
15712;SDS011;7957;51.608;6.916;2023-04-24T12:53:41;6.47;;;3.37;;
15712;SDS011;7957;51.608;6.916;2023-04-24T12:56:08;5.07;;;2.50;;
15712;SDS011;7957;51.608;6.916;2023-04-24T12:58:35;5.90;;;2.83;;
15712;SDS011;7957;51.608;6.916;2023-04-24T13:01:02;4.73;;;2.40;;
15712;SDS011;7957;51.608;6.916;2023-04-24T13:03:29;4.63;;;2.67;;
15712;SDS011;7957;51.608;6.916;2023-04-24T13:05:56;4.47;;;2.40;;
15712;SDS011;7957;51.608;6.916;2023-04-24T13:08:24;5.30;;;2.60;;
15712;SDS011;7957;51.608;6.916;2023-04-24T13:10:52;5.83;;;2.60;;
15712;SDS011;7957;51.608;6.916;2023-04-24T13:13:19;7.00;;;2.60;;
15712;SDS011;7957;51.608;6.916;2023-04-24T13:15:46;6.77;;;2.47;;
15712;SDS011;7957;51.608;6.916;2023-04-24T13:18:15;4.03;;;2.40;;
15712;SDS011;7957;51.608;6.916;2023-04-24T13:20:42;3.80;;;2.33;;
15712;SDS011;7957;51.608;6.916;2023-04-24T13:23:10;2.70;;;2.10;;
15712;SDS011;7957;51.608;6.916;2023-04-24T13:25:38;5.23;;;2.63;;
15712;SDS011;7957;51.608;6.916;2023-04-24T13:28:07;3.53;;;2.60;;
15712;SDS011;7957;51.608;6.916;2023-04-24T13:30:33;3.50;;;2.40;;
15712;SDS011;7957;51.608;6.916;2023-04-24T13:33:00;5.03;;;2.63;;
15712;SDS011;7957;51.608;6.916;2023-04-24T13:35:27;4.37;;;2.57;;
15712;SDS011;7957;51.608;6.916;2023-04-24T13:37:55;3.60;;;2.30;;
15712;SDS011;7957;51.608;6.916;2023-04-24T13:40:22;3.93;;;2.27;;
15712;SDS011;7957;51.608;6.916;2023-04-24T13:42:48;4.27;;;2.60;;
15712;SDS011;7957;51.608;6.916;2023-04-24T13:45:17;7.87;;;2.50;;
15712;SDS011;7957;51.608;6.916;2023-04-24T13:47:45;2.80;;;2.10;;
15712;SDS011;7957;51.608;6.916;2023-04-24T13:50:12;6.30;;;2.70;;
15712;SDS011;7957;51.608;6.916;2023-04-24T13:52:40;3.53;;;2.63;;
15712;SDS011;7957;51.608;6.916;2023-04-24T13:55:19;5.43;;;2.67;;
15712;SDS011;7957;51.608;6.916;2023-04-24T13:57:46;5.63;;;2.70;;
15712;SDS011;7957;51.608;6.916;2023-04-24T14:00:13;6.50;;;3.20;;
15712;SDS011;7957;51.608;6.916;2023-04-24T14:02:43;4.20;;;2.50;;
15712;SDS011;7957;51.608;6.916;2023-04-24T14:05:10;4.47;;;2.70;;
15712;SDS011;7957;51.608;6.916;2023-04-24T14:07:37;4.23;;;2.50;;
15712;SDS011;7957;51.608;6.916;2023-04-24T14:10:04;4.93;;;2.90;;
15712;SDS011;7957;51.608;6.916;2023-04-24T14:12:32;3.30;;;2.80;;
15712;SDS011;7957;51.608;6.916;2023-04-24T14:14:59;5.17;;;3.07;;
15712;SDS011;7957;51.608;6.916;2023-04-24T14:17:26;4.77;;;3.00;;
15712;SDS011;7957;51.608;6.916;2023-04-24T14:19:55;4.93;;;2.70;;
15712;SDS011;7957;51.608;6.916;2023-04-24T14:22:24;4.40;;;2.67;;
15712;SDS011;7957;51.608;6.916;2023-04-24T14:24:52;4.63;;;2.70;;
15712;SDS011;7957;51.608;6.916;2023-04-24T14:27:19;5.30;;;2.60;;
15712;SDS011;7957;51.608;6.916;2023-04-24T14:29:46;5.50;;;2.50;;
15712;SDS011;7957;51.608;6.916;2023-04-24T14:32:13;6.47;;;2.57;;
15712;SDS011;7957;51.608;6.916;2023-04-24T14:34:41;3.27;;;2.20;;
15712;SDS011;7957;51.608;6.916;2023-04-24T14:37:10;5.20;;;2.80;;
15712;SDS011;7957;51.608;6.916;2023-04-24T14:39:37;5.87;;;2.93;;
15712;SDS011;7957;51.608;6.916;2023-04-24T14:42:04;4.77;;;2.90;;
15712;SDS011;7957;51.608;6.916;2023-04-24T14:44:31;5.20;;;3.00;;
15712;SDS011;7957;51.608;6.916;2023-04-24T14:46:58;4.67;;;3.17;;
15712;SDS011;7957;51.608;6.916;2023-04-24T14:49:26;4.80;;;3.13;;
15712;SDS011;7957;51.608;6.916;2023-04-24T14:51:53;5.43;;;3.60;;
15712;SDS011;7957;51.608;6.916;2023-04-24T14:54:22;6.40;;;3.00;;
15712;SDS011;7957;51.608;6.916;2023-04-24T14:56:56;7.30;;;3.30;;
15712;SDS011;7957;51.608;6.916;2023-04-24T14:59:23;5.47;;;3.23;;
15712;SDS011;7957;51.608;6.916;2023-04-24T15:01:50;4.83;;;2.93;;
15712;SDS011;7957;51.608;6.916;2023-04-24T15:04:21;4.33;;;3.00;;
15712;SDS011;7957;51.608;6.916;2023-04-24T15:06:50;6.60;;;2.90;;
15712;SDS011;7957;51.608;6.916;2023-04-24T15:09:18;4.90;;;2.87;;
15712;SDS011;7957;51.608;6.916;2023-04-24T15:11:48;3.30;;;2.60;;
15712;SDS011;7957;51.608;6.916;2023-04-24T15:14:15;3.83;;;2.10;;
15712;SDS011;7957;51.608;6.916;2023-04-24T15:16:43;4.23;;;2.53;;